»·PEaware :: N35CF KDEN-KBIL

N35CF :: KDEN-KBIL

FLIGHT INFORMATION

Flight Status: Arrived
Operator: Privately registered:
United States
More flights under this callsign
Pilot: Anonymous 18613 (18613)
Aircraft: BEECH AIRCRAFT A90-E90 KING AIR
(BE9L)
More flights by this aircraft type
Origin: KDEN Denver Intl
United States
Destination: KBIL Billings Logan Intl
United States
More flights between these airports :: More routes between these airports
Route: +
File this flight plan on PilotEdge
Remarks: VFR
Altitude:
(Current/Filed)
14,500ft
Speed:
(Current/Filed)
180kts
Departed: 10-May-18 11:14 AM
Arrived: 10-May-18 01:29 PM
Distance/Time
Traveled:
395nm/2:15
Distance/Time
To Go:
Arrived

Flight Plot

Page will automatically refresh every two minutes.

Flight plan parsing failed; only flown route is shown


Map Options




Map Legend


Flown Route
Filed Route
Departure Airport
Arrival Airport
Navaid (VOR, NDB)
Fix

Horizontal Profiles

Position Reports

Time Latitude Longitude Heading Altitude Ground
Speed
10-May-18 10:48 39.837869 -104.665234 1 5437ft 0kts
10-May-18 10:49 39.837869 -104.665234 1 5437ft 0kts
10-May-18 10:50 39.837869 -104.665234 1 5437ft 0kts
10-May-18 10:51 39.837869 -104.665234 1 5437ft 0kts
10-May-18 10:52 39.837869 -104.665234 1 5437ft 0kts
10-May-18 10:53 39.837869 -104.665234 1 5437ft 0kts
10-May-18 10:54 39.837869 -104.665234 1 5437ft 0kts
10-May-18 10:55 39.837869 -104.665234 1 5437ft 0kts
10-May-18 10:56 39.837869 -104.665234 1 5437ft 0kts
10-May-18 10:57 39.837869 -104.665234 1 5437ft 0kts
10-May-18 10:58 39.837869 -104.665234 1 5437ft 0kts
10-May-18 10:59 39.837869 -104.665234 1 5437ft 0kts
10-May-18 11:00 39.837869 -104.665234 1 5437ft 0kts
10-May-18 11:01 39.837869 -104.665234 1 5437ft 0kts
10-May-18 11:02 39.837869 -104.665234 1 5437ft 0kts
10-May-18 11:03 39.837869 -104.665234 1 5437ft 0kts
10-May-18 11:04 39.837869 -104.665234 1 5437ft 0kts
10-May-18 11:05 39.837869 -104.665234 1 5437ft 0kts
10-May-18 11:06 39.837997 -104.665184 29 5437ft 6kts
10-May-18 11:07 39.840413 -104.662508 8 5437ft 12kts
10-May-18 11:08 39.845836 -104.662444 1 5437ft 21kts
10-May-18 11:09 39.853602 -104.662332 1 5437ft 38kts
10-May-18 11:10 39.861117 -104.661903 112 5437ft 6kts
10-May-18 11:11 39.861032 -104.661400 89 5437ft 0kts
10-May-18 11:12 39.861032 -104.661400 89 5437ft 0kts
10-May-18 11:13 39.861032 -104.660912 91 5437ft 8kts
10-May-18 11:14 39.853686 -104.660224 179 5437ft 106kts
10-May-18 11:15 39.818756 -104.663787 206 6336ft 144kts
10-May-18 11:16 39.807738 -104.724344 246 7129ft 181kts
10-May-18 11:17 39.788771 -104.787728 246 7436ft 194kts
10-May-18 11:18 39.783704 -104.858358 280 7493ft 210kts
10-May-18 11:19 39.804831 -104.928952 328 7268ft 225kts
10-May-18 11:20 39.862264 -104.956241 340 7401ft 214kts
10-May-18 11:21 39.914134 -104.978921 342 8363ft 173kts
10-May-18 11:22 39.957627 -104.995102 339 9422ft 153kts
10-May-18 11:23 39.999587 -105.010595 336 10279ft 157kts
10-May-18 11:24 40.038676 -105.026591 333 11380ft 149kts
10-May-18 11:25 40.078059 -105.045062 330 12280ft 152kts
10-May-18 11:26 40.115746 -105.064844 328 13133ft 151kts
10-May-18 11:27 40.157178 -105.078996 337 13936ft 156kts
10-May-18 11:28 40.198879 -105.093364 335 14664ft 158kts
10-May-18 11:29 40.242543 -105.110717 333 15213ft 165kts
10-May-18 11:30 40.286461 -105.129845 332 15537ft 181kts
10-May-18 11:31 40.330986 -105.150851 330 16382ft 152kts
10-May-18 11:32 40.381450 -105.165472 352 15760ft 217kts
10-May-18 11:33 40.445701 -105.168534 346 14795ft 239kts
10-May-18 11:34 40.508442 -105.181709 344 14554ft 230kts
10-May-18 11:35 40.570703 -105.189632 352 14474ft 221kts
10-May-18 11:36 40.630141 -105.190129 348 14589ft 213kts
10-May-18 11:37 40.690355 -105.195287 354 14539ft 214kts
10-May-18 11:38 40.747812 -105.205301 344 14602ft 209kts
10-May-18 11:39 40.805131 -105.217842 338 14612ft 207kts
10-May-18 11:40 40.850306 -105.256461 295 14489ft 196kts
10-May-18 11:41 40.876432 -105.316234 294 14575ft 184kts
10-May-18 11:42 40.907094 -105.370185 310 14529ft 188kts
10-May-18 11:43 40.948786 -105.413243 319 14556ft 192kts
10-May-18 11:44 40.994070 -105.451649 322 14553ft 195kts
10-May-18 11:45 41.041166 -105.489130 324 14551ft 199kts
10-May-18 11:46 41.088971 -105.526487 326 14559ft 201kts
10-May-18 11:47 41.135934 -105.563054 326 14569ft 202kts
10-May-18 11:48 41.184597 -105.600958 327 14538ft 204kts
10-May-18 11:49 41.233431 -105.638938 327 14527ft 204kts
10-May-18 11:50 41.283601 -105.670740 334 14516ft 204kts
10-May-18 11:51 41.330274 -105.710878 311 14538ft 198kts
10-May-18 11:52 41.379816 -105.741664 348 14557ft 201kts
10-May-18 11:53 41.434725 -105.760263 340 14508ft 204kts
10-May-18 11:54 41.489172 -105.782413 340 14519ft 205kts
10-May-18 11:55 41.543659 -105.804538 340 14527ft 205kts
10-May-18 11:56 41.598340 -105.826763 340 14533ft 205kts
10-May-18 11:57 41.652738 -105.848907 340 14537ft 206kts
10-May-18 11:58 41.707449 -105.871216 340 14541ft 206kts
10-May-18 11:59 41.762197 -105.893579 340 14543ft 206kts
10-May-18 12:00 41.813038 -105.914383 340 14546ft 206kts
10-May-18 12:01 41.867845 -105.936847 340 14548ft 206kts
10-May-18 12:02 41.922492 -105.959285 340 14550ft 206kts
10-May-18 12:03 41.977383 -105.981863 340 14553ft 206kts
10-May-18 12:04 42.032169 -106.004441 340 14555ft 206kts
10-May-18 12:05 42.086896 -106.027033 340 14557ft 206kts
10-May-18 12:06 42.141107 -106.049351 340 14558ft 207kts
10-May-18 12:07 42.196212 -106.072130 340 14556ft 207kts
10-May-18 12:08 42.251326 -106.095031 340 14477ft 211kts
10-May-18 12:09 42.307325 -106.118329 340 14455ft 209kts
10-May-18 12:10 42.362798 -106.141443 340 14433ft 209kts
10-May-18 12:11 42.418310 -106.164629 340 14420ft 208kts
10-May-18 12:12 42.473660 -106.187846 340 14358ft 210kts
10-May-18 12:13 42.529291 -106.211129 340 14327ft 210kts
10-May-18 12:14 42.583438 -106.233824 340 14737ft 190kts
10-May-18 12:15 42.632664 -106.254558 339 15173ft 187kts
10-May-18 12:16 42.684375 -106.266108 352 15501ft 190kts
10-May-18 12:17 42.732764 -106.271136 352 16255ft 176kts
10-May-18 12:18 42.779081 -106.275551 352 16602ft 185kts
10-May-18 12:19 42.833908 -106.281338 352 16398ft 209kts
10-May-18 12:20 42.891693 -106.284854 355 16473ft 208kts
10-May-18 12:21 42.949690 -106.286612 355 16542ft 208kts
10-May-18 12:22 43.007768 -106.287037 355 16579ft 209kts
10-May-18 12:23 43.065939 -106.286229 355 16627ft 209kts
10-May-18 12:24 43.121770 -106.290223 333 16541ft 208kts
10-May-18 12:25 43.175036 -106.316180 334 16696ft 203kts
10-May-18 12:26 43.228258 -106.341184 334 16625ft 202kts
10-May-18 12:27 43.281033 -106.366026 335 16583ft 201kts
10-May-18 12:28 43.333699 -106.390811 335 16555ft 200kts
10-May-18 12:29 43.386219 -106.415591 335 16536ft 199kts
10-May-18 12:30 43.438551 -106.440328 335 16550ft 200kts
10-May-18 12:31 43.491337 -106.465341 334 16585ft 201kts
10-May-18 12:32 43.544167 -106.490445 334 16617ft 202kts
10-May-18 12:33 43.597339 -106.515749 334 16651ft 202kts
10-May-18 12:34 43.644448 -106.551352 299 16598ft 191kts
10-May-18 12:35 43.670993 -106.604297 307 16671ft 193kts
10-May-18 12:36 43.715668 -106.648361 324 16650ft 200kts
10-May-18 12:37 43.763945 -106.683735 327 16658ft 202kts
10-May-18 12:38 43.806926 -106.729290 297 16600ft 192kts
10-May-18 12:39 43.841673 -106.785573 314 16654ft 197kts
10-May-18 12:40 43.891025 -106.831668 324 15588ft 237kts
10-May-18 12:41 43.948996 -106.875737 328 14648ft 239kts
10-May-18 12:42 44.005270 -106.916311 328 14411ft 221kts
10-May-18 12:43 44.057692 -106.953761 328 14499ft 207kts
10-May-18 12:44 44.107168 -106.989025 329 14452ft 208kts
10-May-18 12:45 44.158478 -107.025373 329 14420ft 207kts
10-May-18 12:46 44.209686 -107.061941 329 14403ft 206kts
10-May-18 12:47 44.259830 -107.100441 306 14297ft 206kts
10-May-18 12:48 44.291406 -107.164382 300 14373ft 199kts
10-May-18 12:49 44.322383 -107.228347 300 14370ft 199kts
10-May-18 12:50 44.353427 -107.292484 300 14367ft 199kts
10-May-18 12:51 44.387187 -107.354256 312 14347ft 202kts
10-May-18 12:52 44.430143 -107.402886 321 14521ft 199kts
10-May-18 12:53 44.476506 -107.446147 323 14568ft 201kts
10-May-18 12:54 44.523856 -107.487847 324 14606ft 202kts
10-May-18 12:55 44.571771 -107.529381 324 14640ft 202kts
10-May-18 12:56 44.619699 -107.570808 324 14667ft 203kts
10-May-18 12:57 44.664398 -107.618053 311 14693ft 199kts
10-May-18 12:58 44.696207 -107.661523 311 14691ft 200kts
10-May-18 12:59 44.736416 -107.716094 311 14695ft 201kts
10-May-18 13:00 44.776659 -107.770696 311 14699ft 201kts
10-May-18 13:01 44.817707 -107.824451 313 14703ft 202kts
10-May-18 13:02 44.859237 -107.877686 313 14707ft 202kts
10-May-18 13:03 44.900806 -107.930958 313 14709ft 202kts
10-May-18 13:04 44.952339 -107.989180 318 14585ft 208kts
10-May-18 13:05 44.994622 -108.046657 306 14255ft 210kts
10-May-18 13:06 45.024083 -108.100078 305 14103ft 207kts
10-May-18 13:07 45.066969 -108.151156 347 13892ft 217kts
10-May-18 13:08 45.121781 -108.144576 0 14423ft 196kts
10-May-18 13:09 45.173805 -108.136952 354 14564ft 194kts
10-May-18 13:10 45.227115 -108.142813 340 14581ft 194kts
10-May-18 13:11 45.276247 -108.170492 322 14622ft 186kts
10-May-18 13:12 45.318463 -108.211640 321 13917ft 190kts
10-May-18 13:13 45.369594 -108.234595 343 12550ft 200kts
10-May-18 13:14 45.417120 -108.272771 326 10581ft 201kts
10-May-18 13:15 45.461682 -108.311757 327 8917ft 178kts
10-May-18 13:16 45.501439 -108.347287 328 7913ft 169kts
10-May-18 13:17 45.540490 -108.382328 328 7008ft 164kts
10-May-18 13:18 45.576608 -108.414806 329 6617ft 150kts
10-May-18 13:19 45.612052 -108.446720 330 6081ft 150kts
10-May-18 13:20 45.649538 -108.452200 13 5579ft 128kts
10-May-18 13:21 45.681924 -108.458482 348 4870ft 115kts
10-May-18 13:22 45.710517 -108.471999 340 4595ft 103kts
10-May-18 13:23 45.739376 -108.487986 342 4798ft 112kts
10-May-18 13:24 45.768974 -108.508412 330 4815ft 123kts
10-May-18 13:25 45.788465 -108.550036 291 4575ft 133kts
10-May-18 13:26 45.804490 -108.592679 359 4667ft 120kts
10-May-18 13:27 45.815066 -108.563253 101 3848ft 103kts
10-May-18 13:28 45.806124 -108.530991 112 3654ft 57kts
10-May-18 13:29 45.804092 -108.529661 227 3654ft 19kts
10-May-18 13:30 45.802589 -108.529261 291 3654ft 0kts

Navigation Log

Ident Type
Flight plan parsing failed, navigation log unavailable